Date,TemperatureHighF,TemperatureAvgF,TemperatureLowF,DewpointHighF,DewpointAvgF,DewpointLowF,HumidityHigh,HumidityAvg,HumidityLow,PressureMaxIn,PressureMinIn,WindSpeedMaxMPH,WindSpeedAvgMPH,GustSpeedMaxMPH,PrecipitationSumIn
2014-1-1,53,40,24,42,32,22,96,75,49,30.30,29.96,8,2,12,0.02
2014-1-2,48,42,31,47,40,28,95,91,84,30.13,29.89,10,4,22,0.39
2014-1-4,49,43,34,38,24,-100,74,51,33,30.19,29.97,12,4,18,0.00
2014-1-5,50,38,19,48,34,12,93,83,73,30.28,29.67,21,7,24,0.30
2014-1-6,18,14,10,11,1,-3,72,57,48,30.57,30.29,27,7,40,0.01
2014-1-7,14,9,6,2,0,-3,77,66,56,30.57,30.54,24,3,24,0.00
2014-1-8,42,38,24,28,17,13,77,44,30,30.50,30.36,8,2,12,0.00
2014-1-9,42,35,32,39,31,27,93,86,75,30.43,30.20,4,1,11,0.01
2014-1-10,56,49,43,53,46,40,97,90,82,30.20,29.68,6,2,16,0.01
2014-1-11,55,50,44,54,45,39,97,82,66,29.95,29.70,9,4,24,0.01
2014-1-13,52,51,49,51,50,47,96,96,94,29.88,29.81,14,7,14,2.87
2014-1-14,35,35,35,34,34,34,96,96,96,29.98,29.98,2,2,3,0.00
2014-1-15,37,32,23,19,17,14,82,54,40,30.22,30.13,16,4,16,0.00
2014-1-16,50,40,29,29,23,18,64,51,45,30.01,29.85,26,15,26,0.00
2014-1-17,38,33,25,20,16,13,67,49,39,30.20,30.06,16,6,21,0.00
2014-4-16,64,52,32,38,29,25,92,47,23,30.26,30.06,7,2,13,0.00
2014-4-17,71,56,37,46,41,34,92,61,34,30.27,30.14,9,1,17,0.00
2014-4-18,73,62,51,54,51,45,88,69,51,30.21,30.11,10,1,12,0.00
2014-4-19,79,61,48,52,44,-100,97,63,29,30.17,30.08,5,1,12,0.00
2014-4-20,83,66,47,52,48,45,96,59,29,30.19,30.04,5,1,12,0.00
2014-4-21,78,68,56,62,56,50,91,67,46,30.06,29.88,10,2,18,0.04
2014-5-21,29,27,20,17,13,10,79,57,44,30.06,29.96,16,6,32,2.01
2014-5-23,31,26,16,17,14,9,95,62,41,30.03,29.95,5,1,10,0.00
2014-5-24,32,23,18,19,15,-100,96,75,46,30.02,29.92,4,0,9,0.00
2014-5-25,22,21,20,18,17,16,88,85,82,30.00,29.94,3,0,6,0.00
2014-5-26,31,25,18,19,16,14,96,72,49,30.05,29.94,7,1,13,0.00
2014-5-27,28,23,20,21,18,16,90,80,66,29.99,29.85,4,1,10,0.11
2014-5-28,26,22,18,20,18,16,97,85,67,29.91,29.83,4,1,10,0.12
2014-5-29,24,21,19,20,18,18,96,90,76,29.90,29.83,6,2,14,0.25
2014-5-30,26,22,20,20,19,18,95,89,76,29.95,29.88,6,1,7,0.14
2014-5-31,30,24,19,20,13,-100,96,73,59,29.99,29.89,6,1,10,0.01
2014-6-1,30,24,20,20,19,18,95,82,62,30.01,29.96,6,2,10,0.00
2014-6-2,23,23,22,21,21,20,91,91,90,29.99,29.97,4,1,7,0.16
2014-6-3,32,25,21,22,20,19,96,83,59,30.01,29.87,5,1,10,0.00
2014-6-4,30,26,22,22,21,19,95,80,65,29.92,29.72,12,4,17,0.00
2014-6-5,30,26,23,22,21,20,91,82,68,29.84,29.75,12,4,17,0.04
2014-6-6,22,20,19,19,19,18,97,95,83,29.88,29.76,4,1,23,0.70
2014-6-7,31,23,19,23,16,-100,98,83,62,29.90,29.74,10,2,17,0.04
2014-6-8,27,23,19,20,18,16,97,81,63,29.96,29.80,4,2,9,0.04
2014-6-27,27,25,22,21,20,19,95,82,72,29.99,29.94,10,3,16,0.00
2014-6-28,28,24,21,23,20,19,93,87,77,30.04,29.95,9,2,22,0.40
2014-6-29,28,24,19,23,22,19,98,90,80,30.04,29.93,5,2,9,6.50
2014-6-30,32,26,23,23,22,19,96,83,60,29.95,29.83,9,2,13,0.01
2014-7-1,32,28,21,23,21,17,94,76,62,29.93,29.78,10,4,16,0.02
2014-7-2,31,25,19,21,19,17,97,79,56,30.05,29.85,11,1,14,0.14
2014-7-3,27,22,18,18,15,11,95,75,51,30.19,30.04,5,1,9,0.00
2014-7-4,27,21,15,15,13,10,95,71,48,30.27,30.19,6,1,10,0.00
2014-8-6,25,25,25,20,20,20,81,81,81,29.99,29.98,2,2,8,0.00
2014-8-7,32,26,22,22,20,19,94,81,61,29.98,29.89,8,2,16,0.01
2014-8-8,88,72,24,78,67,22,94,87,70,29.97,29.88,4,1,24,0.80
2014-8-9,91,78,74,78,74,72,96,85,65,30.02,29.93,9,1,18,0.37
2014-8-10,92,81,73,77,74,72,97,81,57,30.04,29.94,6,1,10,0.10
2014-8-11,89,80,74,79,74,71,94,83,59,29.99,29.90,7,3,13,0.03
2014-8-23,77,67,77,76,66,76,97,85,97,29.98,29.97,0,0,0,0.86
2014-8-24,89,78,74,77,75,73,98,91,68,30.00,29.96,10,1,11,0.86
2014-8-25,93,87,79,78,76,74,88,71,56,30.04,29.97,5,1,10,0.00
2014-8-26,90,80,75,75,73,70,96,80,60,30.14,30.04,4,1,12,0.00
2014-8-27,89,80,71,74,71,67,98,75,49,30.13,30.02,5,1,10,0.00
2014-9-6,89,75,71,77,72,68,97,90,67,30.10,30.03,7,1,16,1.25
2014-9-7,83,73,66,72,68,64,93,84,64,30.11,30.01,5,1,13,0.01
2014-9-8,73,68,66,69,67,65,98,95,86,30.08,30.04,3,0,5,0.00
2014-9-15,81,74,62,70,65,60,95,75,57,30.19,30.10,3,0,6,0.00